createdAt,value
2018-06-25T00:01:27.742Z,91.30
2018-06-25T00:03:56.079Z,91.20
2018-06-25T00:08:52.468Z,91.30
2018-06-25T00:11:20.776Z,91.30
2018-06-25T00:13:49.144Z,91.30
2018-06-25T00:16:17.461Z,91.20
2018-06-25T00:28:38.067Z,91.30
2018-06-25T00:31:06.404Z,91.20
2018-06-25T00:33:34.736Z,91.20
2018-06-25T00:36:03.066Z,91.20
2018-06-25T00:40:59.451Z,91.30
2018-06-25T00:43:27.791Z,91.30
2018-06-25T00:48:24.180Z,91.30
2018-06-25T00:50:52.507Z,91.40
2018-06-25T00:53:20.839Z,91.40
2018-06-25T00:55:49.186Z,91.40
2018-06-25T01:03:13.620Z,91.40
2018-06-25T01:05:41.927Z,91.50
2018-06-25T01:08:10.279Z,91.40
2018-06-25T01:10:38.591Z,91.50
2018-06-25T01:13:06.953Z,91.50
2018-06-25T01:15:35.263Z,91.50
2018-06-25T01:18:03.631Z,91.50
2018-06-25T01:20:31.960Z,91.60
2018-06-25T01:23:00.304Z,91.50
2018-06-25T01:25:28.611Z,91.60
2018-06-25T01:27:56.910Z,91.70
2018-06-25T01:30:25.240Z,91.70
2018-06-25T01:32:53.551Z,91.80
2018-06-25T01:35:21.880Z,91.80
2018-06-25T01:37:50.191Z,91.90
2018-06-25T01:40:18.524Z,91.90
2018-06-25T01:42:46.831Z,91.80
2018-06-25T01:45:15.184Z,91.80
2018-06-25T01:47:43.599Z,91.90
2018-06-25T01:50:11.951Z,91.80
2018-06-25T01:52:40.296Z,91.90
2018-06-25T01:55:08.653Z,91.90
2018-06-25T02:02:34.298Z,92.10
2018-06-25T02:05:02.795Z,92.10
2018-06-25T02:09:59.231Z,92.10
2018-06-25T02:12:27.602Z,92.10
2018-06-25T02:14:55.946Z,91.90
2018-06-25T02:17:24.302Z,92.20
2018-06-25T02:19:52.636Z,92.30
2018-06-25T02:22:21.018Z,92.30
2018-06-25T02:24:49.372Z,92.30
2018-06-25T02:27:17.747Z,92.20
2018-06-25T02:29:46.083Z,92.10
2018-06-25T02:32:14.443Z,92.10
2018-06-25T02:34:42.773Z,92.10
2018-06-25T02:37:11.152Z,92.10
2018-06-25T02:39:39.502Z,92.10
2018-06-25T02:42:07.892Z,92.10
2018-06-25T02:44:36.222Z,92.20
2018-06-25T02:47:04.618Z,92.10
2018-06-25T02:49:32.984Z,92.20
2018-06-25T02:52:01.353Z,92.30
2018-06-25T02:54:29.688Z,92.20
2018-06-25T02:56:58.064Z,92.20
2018-06-25T02:59:26.395Z,92.10
2018-06-25T03:01:54.759Z,92.10
2018-06-25T03:04:23.104Z,92.10
2018-06-25T03:06:51.461Z,92.10
2018-06-25T03:11:47.880Z,92.20
2018-06-25T03:14:16.240Z,92.10
2018-06-25T03:16:44.607Z,92.10
2018-06-25T03:19:12.948Z,92.00
2018-06-25T03:21:41.328Z,92.00
2018-06-25T03:26:37.751Z,92.00
2018-06-25T03:29:06.088Z,92.00
2018-06-25T03:31:34.456Z,92.00
2018-06-25T03:34:02.786Z,92.10
2018-06-25T03:36:31.173Z,92.00
2018-06-25T03:38:59.504Z,92.00
2018-06-25T03:41:27.875Z,92.00
2018-06-25T03:43:56.202Z,92.00
2018-06-25T03:46:24.704Z,92.00
2018-06-25T03:48:53.044Z,92.10
2018-06-25T03:51:21.433Z,92.10
2018-06-25T03:53:49.812Z,92.10
2018-06-25T03:56:18.151Z,92.00
2018-06-25T03:58:46.508Z,92.10
2018-06-25T04:01:14.839Z,92.10
2018-06-25T04:03:43.399Z,92.10
2018-06-25T04:06:11.734Z,92.00
2018-06-25T04:08:40.099Z,92.10
2018-06-25T04:11:08.435Z,92.10
2018-06-25T04:13:36.816Z,92.10
2018-06-25T04:16:05.175Z,92.10
2018-06-25T04:18:33.527Z,92.00
2018-06-25T04:21:01.875Z,92.00
2018-06-25T04:23:30.236Z,92.00
2018-06-25T04:25:58.608Z,92.00
2018-06-25T04:28:26.959Z,92.00
2018-06-25T04:35:51.463Z,91.90
2018-06-25T04:38:19.851Z,91.90
2018-06-25T04:40:48.188Z,91.80
2018-06-25T04:43:16.584Z,91.80
2018-06-25T04:45:44.916Z,91.80
2018-06-25T04:48:13.291Z,91.90
2018-06-25T04:53:09.707Z,92.00
2018-06-25T04:55:38.052Z,92.00
2018-06-25T04:58:06.463Z,92.00
2018-06-25T05:00:34.795Z,92.10
2018-06-25T05:03:03.290Z,92.00
2018-06-25T05:05:31.659Z,92.00
2018-06-25T05:08:00.040Z,92.00
2018-06-25T05:10:28.383Z,91.90
2018-06-25T05:12:56.792Z,91.90
2018-06-25T05:15:25.139Z,91.90
2018-06-25T05:17:53.515Z,92.00
2018-06-25T05:20:21.872Z,91.90
2018-06-25T05:25:18.332Z,91.90
2018-06-25T05:27:46.720Z,91.90
2018-06-25T05:30:15.064Z,91.80
2018-06-25T05:32:43.443Z,91.70
2018-06-25T05:35:11.784Z,91.60
2018-06-25T05:37:40.128Z,91.50
2018-06-25T05:40:08.544Z,91.40
2018-06-25T05:45:05.024Z,91.30
2018-06-25T05:47:33.470Z,91.20
2018-06-25T05:52:29.917Z,91.20
2018-06-25T05:54:58.299Z,91.10
2018-06-25T06:04:50.963Z,91.00
2018-06-25T06:07:19.302Z,91.00
2018-06-25T06:09:47.695Z,91.00
2018-06-25T06:12:16.035Z,90.90
2018-06-25T06:17:12.521Z,91.30
2018-06-25T06:19:40.898Z,91.00
2018-06-25T06:22:09.243Z,91.10
2018-06-25T06:24:37.644Z,91.30
2018-06-25T06:27:05.999Z,91.70
2018-06-25T06:29:34.353Z,91.50
2018-06-25T06:32:02.736Z,91.50
2018-06-25T06:34:31.073Z,91.60
2018-06-25T06:36:59.407Z,91.60
2018-06-25T06:39:27.763Z,91.70
2018-06-25T06:41:56.091Z,91.70
2018-06-25T06:46:52.704Z,91.70
2018-06-25T06:49:25.035Z,91.70
2018-06-25T06:51:53.788Z,91.70
2018-06-25T06:54:22.159Z,91.70
2018-06-25T06:56:50.514Z,91.80
2018-06-25T06:59:18.880Z,91.60
2018-06-25T07:01:47.212Z,91.60
2018-06-25T07:06:43.660Z,91.40
2018-06-25T07:09:13.500Z,91.40
2018-06-25T07:11:42.563Z,91.20
2018-06-25T07:14:10.943Z,91.00
2018-06-25T07:16:40.363Z,91.00
2018-06-25T07:21:37.531Z,91.00
2018-06-25T07:26:33.988Z,91.00
2018-06-25T07:31:30.487Z,90.90
2018-06-25T07:33:58.867Z,90.60
2018-06-25T07:36:27.214Z,90.50
2018-06-25T07:38:55.589Z,90.50
2018-06-25T07:41:24.024Z,90.30
2018-06-25T07:43:52.397Z,90.10
2018-06-25T07:46:20.760Z,90.10
2018-06-25T07:48:49.141Z,90.00
2018-06-25T07:51:17.502Z,90.00
2018-06-25T07:53:45.878Z,90.00
2018-06-25T07:56:14.286Z,90.30
2018-06-25T07:58:42.631Z,90.00
2018-06-25T08:01:10.995Z,89.90
2018-06-25T08:06:07.480Z,89.60
2018-06-25T08:08:35.829Z,89.30
2018-06-25T08:13:32.314Z,89.30
2018-06-25T08:16:00.688Z,89.30
2018-06-25T08:18:29.036Z,89.10
2018-06-25T08:20:57.454Z,88.70
2018-06-25T08:23:25.805Z,88.50
2018-06-25T08:28:22.264Z,87.90
2018-06-25T08:30:50.658Z,87.30
2018-06-25T08:33:19.023Z,87.00
2018-06-25T08:35:47.412Z,86.30
2018-06-25T08:38:15.772Z,85.80
2018-06-25T08:43:12.252Z,84.90
2018-06-25T08:45:40.624Z,84.30
2018-06-25T08:48:08.961Z,83.80
2018-06-25T08:50:37.360Z,83.70
2018-06-25T08:58:01.863Z,82.70
2018-06-25T09:00:30.219Z,82.50
2018-06-25T09:02:58.561Z,81.80
2018-06-25T09:05:26.935Z,81.10
2018-06-25T09:07:55.303Z,80.90
2018-06-25T09:12:51.763Z,80.00
2018-06-25T09:17:48.257Z,79.90
2018-06-25T09:20:16.617Z,78.40
2018-06-25T09:22:45.003Z,78.00
2018-06-25T09:25:13.336Z,77.80
2018-06-25T09:27:48.721Z,77.70
2018-06-25T09:30:17.796Z,76.50
2018-06-25T09:32:46.224Z,76.90
2018-06-25T09:35:14.586Z,76.90
2018-06-25T09:37:42.947Z,76.70
2018-06-25T09:40:11.275Z,75.80
2018-06-25T09:42:39.663Z,75.10
2018-06-25T09:45:09.279Z,75.10
2018-06-25T09:47:37.639Z,74.90
2018-06-25T09:50:06.008Z,75.30
2018-06-25T09:52:34.375Z,74.70
2018-06-25T09:55:02.739Z,74.10
2018-06-25T09:57:31.095Z,73.50
2018-06-25T09:59:59.446Z,73.30
2018-06-25T10:02:27.823Z,73.10
2018-06-25T10:04:56.204Z,72.30
2018-06-25T10:07:24.710Z,71.90
2018-06-25T10:12:21.159Z,71.60
2018-06-25T10:14:49.488Z,71.20
2018-06-25T10:17:17.843Z,71.30
2018-06-25T10:19:46.177Z,71.10
2018-06-25T10:22:14.536Z,70.90
2018-06-25T10:24:42.867Z,70.10
2018-06-25T10:27:11.228Z,70.40
2018-06-25T10:29:39.562Z,70.70
2018-06-25T10:32:07.929Z,70.30
2018-06-25T10:34:36.259Z,69.90
2018-06-25T10:39:33.603Z,69.70
2018-06-25T10:42:02.031Z,69.10
2018-06-25T10:44:30.345Z,68.70
2018-06-25T10:46:58.747Z,68.60
2018-06-25T10:49:27.099Z,68.70
2018-06-25T10:51:55.463Z,68.60
2018-06-25T10:54:23.807Z,69.00
2018-06-25T10:56:52.175Z,68.60
2018-06-25T10:59:20.557Z,69.40
2018-06-25T11:01:48.912Z,68.40
2018-06-25T11:04:17.269Z,67.90
2018-06-25T11:06:45.624Z,68.20
2018-06-25T11:09:13.948Z,68.60
2018-06-25T11:11:42.333Z,68.10
2018-06-25T11:14:10.694Z,68.30
2018-06-25T11:16:39.024Z,68.70
2018-06-25T11:19:07.392Z,68.70
2018-06-25T11:21:35.711Z,68.20
2018-06-25T11:24:04.112Z,67.70
2018-06-25T11:26:33.579Z,68.10
2018-06-25T11:29:01.953Z,68.20
2018-06-25T11:33:58.372Z,68.30
2018-06-25T11:36:26.716Z,69.40
2018-06-25T11:38:55.076Z,69.40
2018-06-25T11:41:23.429Z,67.80
2018-06-25T11:43:51.783Z,66.70
2018-06-25T11:46:20.117Z,66.00
2018-06-25T11:48:48.489Z,65.60
2018-06-25T11:51:16.837Z,65.30
2018-06-25T11:56:13.267Z,65.70
2018-06-25T11:58:41.631Z,66.00
2018-06-25T12:01:09.973Z,65.40
2018-06-25T12:03:38.335Z,65.00
2018-06-25T12:06:06.796Z,64.90
2018-06-25T12:08:35.167Z,64.00
2018-06-25T12:11:03.508Z,63.90
2018-06-25T12:13:31.960Z,63.80
2018-06-25T12:16:00.319Z,64.00
2018-06-25T12:18:28.737Z,63.90
2018-06-25T12:20:57.125Z,63.40
2018-06-25T12:23:25.443Z,64.30
2018-06-25T12:25:53.807Z,64.50
2018-06-25T12:28:22.193Z,65.00
2018-06-25T12:30:50.529Z,64.90
2018-06-25T12:33:18.931Z,65.40
2018-06-25T12:35:47.303Z,65.00
2018-06-25T12:38:16.667Z,64.50
2018-06-25T12:40:45.001Z,64.30
2018-06-25T12:43:13.424Z,64.70
2018-06-25T12:45:41.740Z,64.50
2018-06-25T12:50:38.159Z,64.30
2018-06-25T12:53:06.564Z,64.10
2018-06-25T12:55:34.912Z,64.60
2018-06-25T12:58:03.267Z,63.80
2018-06-25T13:00:31.610Z,64.00
2018-06-25T13:03:00.028Z,63.20
2018-06-25T13:05:28.452Z,62.60
2018-06-25T13:10:24.883Z,62.00
2018-06-25T13:12:53.254Z,60.80
2018-06-25T13:15:21.663Z,60.20
2018-06-25T13:22:46.275Z,60.20
2018-06-25T13:25:14.647Z,59.80
2018-06-25T13:27:42.974Z,59.20
2018-06-25T13:30:11.408Z,58.90
2018-06-25T13:32:39.779Z,58.70
2018-06-25T13:35:08.157Z,59.10
2018-06-25T13:37:36.504Z,58.50
2018-06-25T13:40:05.099Z,58.20
2018-06-25T13:42:33.459Z,58.70
2018-06-25T13:45:01.823Z,58.30
2018-06-25T13:47:30.164Z,58.00
2018-06-25T13:49:58.531Z,57.50
2018-06-25T13:52:26.883Z,57.40
2018-06-25T13:54:55.260Z,57.00
2018-06-25T13:57:23.604Z,57.70
2018-06-25T13:59:51.976Z,57.00
2018-06-25T14:02:20.332Z,57.40
2018-06-25T14:04:48.699Z,56.80
2018-06-25T14:07:17.039Z,57.60
2018-06-25T14:09:45.434Z,57.20
2018-06-25T14:12:13.832Z,57.30
2018-06-25T14:14:42.232Z,57.30
2018-06-25T14:17:10.580Z,57.10
2018-06-25T14:19:38.949Z,57.20
2018-06-25T14:22:07.328Z,57.40
2018-06-25T14:24:40.995Z,57.50
2018-06-25T14:29:38.840Z,57.10
2018-06-25T14:32:41.585Z,56.90
2018-06-25T14:35:15.504Z,56.60
2018-06-25T14:37:44.567Z,56.60
2018-06-25T14:40:13.012Z,56.60
2018-06-25T14:42:41.410Z,56.70
2018-06-25T14:45:10.171Z,56.90
2018-06-25T14:47:38.548Z,57.00
2018-06-25T14:50:06.925Z,56.60
2018-06-25T14:52:35.329Z,56.90
2018-06-25T14:55:03.711Z,56.20
2018-06-25T14:57:32.052Z,56.40
2018-06-25T15:00:00.533Z,56.30
2018-06-25T15:02:29.088Z,56.60
2018-06-25T15:07:25.523Z,56.70
2018-06-25T15:09:53.880Z,56.60
2018-06-25T15:12:22.275Z,56.50
2018-06-25T15:14:50.647Z,56.70
2018-06-25T15:17:19.059Z,56.90
2018-06-25T15:19:47.428Z,56.50
2018-06-25T15:22:15.803Z,56.20
2018-06-25T15:24:44.153Z,56.10
2018-06-25T15:27:12.548Z,56.80
2018-06-25T15:29:40.884Z,56.00
2018-06-25T15:32:09.256Z,56.30
2018-06-25T15:34:37.591Z,55.90
2018-06-25T15:37:05.961Z,55.60
2018-06-25T15:39:34.327Z,55.30
2018-06-25T15:42:02.684Z,55.10
2018-06-25T15:44:31.020Z,55.40
2018-06-25T15:46:59.369Z,55.30
2018-06-25T15:49:27.699Z,54.90
2018-06-25T15:54:24.176Z,55.90
2018-06-25T15:56:52.549Z,54.90
2018-06-25T15:59:20.876Z,54.60
2018-06-25T16:01:49.232Z,54.30
2018-06-25T16:04:17.584Z,54.60
2018-06-25T16:06:46.032Z,54.70
2018-06-25T16:09:14.311Z,54.90
2018-06-25T16:14:10.756Z,53.70
2018-06-25T16:16:39.108Z,54.00
2018-06-25T16:19:07.452Z,53.40
2018-06-25T16:21:35.827Z,53.20
2018-06-25T16:24:04.231Z,52.00
2018-06-25T16:26:32.650Z,51.70
2018-06-25T16:29:01.020Z,51.30
2018-06-25T16:31:29.375Z,50.60
2018-06-25T16:33:57.729Z,50.10
2018-06-25T16:36:26.115Z,49.50
2018-06-25T16:38:54.449Z,49.80
2018-06-25T16:41:22.863Z,49.40
2018-06-25T16:43:51.232Z,49.00
2018-06-25T16:46:19.616Z,49.00
2018-06-25T16:48:47.947Z,49.70
2018-06-25T16:51:16.344Z,49.90
2018-06-25T16:53:44.691Z,50.10
2018-06-25T16:56:13.037Z,50.30
2018-06-25T16:58:41.396Z,50.80
2018-06-25T17:03:37.848Z,51.10
2018-06-25T17:08:34.280Z,51.30
2018-06-25T17:11:02.635Z,50.60
2018-06-25T17:13:31.055Z,50.30
2018-06-25T17:18:27.500Z,51.00
2018-06-25T17:20:55.837Z,51.40
2018-06-25T17:23:24.216Z,52.00
2018-06-25T17:25:52.744Z,52.30
2018-06-25T17:28:21.111Z,53.10
2018-06-25T17:30:49.463Z,53.60
2018-06-25T17:33:17.843Z,53.90
2018-06-25T17:35:46.273Z,54.30
2018-06-25T17:40:42.718Z,54.50
2018-06-25T17:45:39.158Z,54.00
2018-06-25T17:48:07.527Z,54.00
2018-06-25T17:50:35.870Z,53.50
2018-06-25T17:53:04.255Z,53.20
2018-06-25T17:55:32.666Z,53.20
2018-06-25T17:58:01.060Z,52.70
2018-06-25T18:00:29.389Z,52.70
2018-06-25T18:02:57.740Z,52.50
2018-06-25T18:07:54.156Z,52.50
2018-06-25T18:10:22.520Z,53.50
2018-06-25T18:12:50.907Z,53.30
2018-06-25T18:15:19.256Z,53.70
2018-06-25T18:17:47.629Z,54.30
2018-06-25T18:20:16.035Z,54.60
2018-06-25T18:22:44.981Z,54.80
2018-06-25T18:25:13.674Z,55.30
2018-06-25T18:27:42.044Z,55.50
2018-06-25T18:32:43.756Z,56.20
2018-06-25T18:35:12.191Z,56.60
2018-06-25T18:37:40.575Z,57.00
2018-06-25T18:42:37.172Z,58.40
2018-06-25T18:45:05.619Z,59.20
2018-06-25T18:50:02.048Z,60.20
2018-06-25T18:52:30.404Z,61.10
2018-06-25T18:54:58.779Z,60.70
2018-06-25T18:57:27.125Z,61.10
2018-06-25T18:59:55.504Z,61.40
2018-06-25T19:02:23.850Z,61.50
2018-06-25T19:04:53.368Z,61.50
2018-06-25T19:09:49.815Z,62.30
2018-06-25T19:14:46.284Z,63.20
2018-06-25T19:22:10.860Z,64.00
2018-06-25T19:24:39.232Z,64.00
2018-06-25T19:27:07.593Z,64.40
2018-06-25T19:29:35.993Z,64.70
2018-06-25T19:32:05.286Z,65.10
2018-06-25T19:34:33.733Z,65.20
2018-06-25T19:39:30.164Z,65.60
2018-06-25T19:46:54.744Z,66.40
2018-06-25T19:49:23.105Z,66.80
2018-06-25T19:51:52.061Z,67.00
2018-06-25T19:54:20.449Z,67.20
2018-06-25T19:56:48.803Z,67.00
2018-06-25T19:59:17.176Z,67.40
2018-06-25T20:01:45.524Z,67.50
2018-06-25T20:04:14.999Z,68.00
2018-06-25T20:11:41.244Z,68.40
2018-06-25T20:14:09.697Z,68.60
2018-06-25T20:16:38.128Z,69.00
2018-06-25T20:19:06.529Z,68.90
2018-06-25T20:21:34.927Z,69.10
2018-06-25T20:24:03.308Z,69.50
2018-06-25T20:26:31.707Z,70.00
2018-06-25T20:29:00.050Z,70.40
2018-06-25T20:31:28.604Z,70.60
2018-06-25T20:38:53.136Z,71.20
2018-06-25T20:43:49.598Z,71.60
2018-06-25T20:46:17.960Z,71.60
2018-06-25T20:51:14.430Z,72.10
2018-06-25T20:53:42.760Z,72.50
2018-06-25T20:56:11.141Z,72.70
2018-06-25T20:58:39.495Z,73.00
2018-06-25T21:01:07.893Z,73.00
2018-06-25T21:03:36.279Z,73.00
2018-06-25T21:06:04.664Z,73.00
2018-06-25T21:08:33.024Z,73.00
2018-06-25T21:11:01.408Z,73.00
2018-06-25T21:13:29.795Z,72.80
2018-06-25T21:15:58.171Z,72.90
2018-06-25T21:18:28.749Z,73.00
2018-06-25T21:20:57.407Z,73.10
2018-06-25T21:28:22.288Z,73.60
2018-06-25T21:30:50.657Z,73.70
2018-06-25T21:33:18.991Z,73.80
2018-06-25T21:35:47.430Z,74.00
2018-06-25T21:38:15.728Z,74.10
2018-06-25T21:40:44.084Z,74.30
2018-06-25T21:43:12.424Z,74.40
2018-06-25T21:45:40.819Z,74.40
2018-06-25T21:55:33.479Z,75.00
2018-06-25T21:58:01.824Z,75.20
2018-06-25T22:00:41.552Z,75.30
2018-06-25T22:03:09.895Z,75.40
2018-06-25T22:05:38.260Z,75.40
2018-06-25T22:08:06.599Z,75.50
2018-06-25T22:10:34.979Z,75.70
2018-06-25T22:13:03.365Z,76.00
2018-06-25T22:15:31.736Z,76.10
2018-06-25T22:18:00.081Z,76.00
2018-06-25T22:20:28.431Z,76.10
2018-06-25T22:22:58.345Z,76.30
2018-06-25T22:25:28.693Z,76.40
2018-06-25T22:27:59.776Z,76.40
2018-06-25T22:30:29.672Z,76.40
2018-06-25T22:33:00.435Z,76.40
2018-06-25T22:35:31.661Z,76.50
2018-06-25T22:40:30.843Z,76.70
2018-06-25T22:42:59.201Z,76.80
2018-06-25T22:45:27.523Z,76.80
2018-06-25T22:50:23.951Z,77.20
2018-06-25T22:52:52.311Z,77.30
2018-06-25T22:55:20.643Z,77.50
2018-06-25T22:57:49.004Z,77.60
2018-06-25T23:02:45.442Z,79.30
2018-06-25T23:05:13.783Z,78.90
2018-06-25T23:07:42.765Z,79.10
2018-06-25T23:10:11.117Z,79.40
2018-06-25T23:12:39.516Z,79.40
2018-06-25T23:15:07.859Z,79.60
2018-06-25T23:17:36.216Z,79.60
2018-06-25T23:20:04.829Z,79.40
2018-06-25T23:22:33.188Z,79.60
2018-06-25T23:25:01.522Z,79.40
2018-06-25T23:27:29.900Z,79.40
2018-06-25T23:29:58.236Z,79.30
2018-06-25T23:32:26.586Z,79.60
2018-06-25T23:34:54.975Z,79.70
2018-06-25T23:37:23.335Z,79.90
2018-06-25T23:39:51.659Z,80.00
2018-06-25T23:42:20.043Z,80.00
2018-06-25T23:44:48.395Z,80.50
2018-06-25T23:47:16.751Z,80.10
2018-06-25T23:49:45.083Z,80.00
2018-06-25T23:54:41.528Z,80.30
2018-06-25T23:57:09.890Z,80.20
2018-06-25T23:59:38.248Z,80.80
